Stoughton, Massachusetts
Current Conditions -  °F | °C
As of 7:53 AM on Tuesday 21 Oct 2014 (Local Time) from KOWD Reporting Station
Overcast Overcast  
Wind Chill: 48°   Ceiling: 3100
Heat Index: 48°   Visibility: 9mi
Dew Point: 47°   Wind: 0mph
Humidity: 96%   Direction: NA
Pressure: 29.96"   Gusts: NA
Location:  42.13°N, 71.1°W
Report Text: KOWD 211153Z 00000KT 9SM OVC031 09/08 A2996 RMK AO2 SLP146 60000 T00890083 10089 20039 55002
Loading
Personal Weather Stations






























Interactive Weather Map
Tropical Storm Tracking
New forecast layout! Learn more

10-Day Weather Forecast

Advertisements
Track Severe Weather on mobile